Time;durP1;ratioP1;P1;durP2;ratioP2;P2;SDS_P1;SDS_P2;PMS_P1;PMS_P2;Temp;Humidity;BMP_temperature;BMP_pressure;BME280_temperature;BME280_humidity;BME280_pressure;Samples;Min_cycle;Max_cycle;Signal;HPM_P1;HPM_P2
2022/01/14 00:01:37;;;;;;;79.47;28.08;;;-3276.00;82.10;;;-3.27;93.46;97937.03;4929494;29;20605;-65
2022/01/14 00:04:03;;;;;;;64.40;26.80;;;-3276.00;81.80;;;-3.31;93.65;97938.88;4938315;29;20043;-66
2022/01/14 00:06:29;;;;;;;63.25;27.38;;;-3276.00;81.80;;;-3.30;93.36;97927.69;4916794;29;20067;-66
2022/01/14 00:09:01;;;;;;;69.95;29.10;;;-3276.00;82.00;;;-3.29;93.67;97934.50;4917566;29;20036;-65
2022/01/14 00:11:30;;;;;;;66.28;27.52;;;-3276.00;82.10;;;-3.29;93.60;97929.38;4928300;29;20036;-66
2022/01/14 00:14:09;;;;;;;89.28;28.55;;;-3276.00;82.00;;;-3.30;93.26;97919.97;4933260;29;20054;-67
2022/01/14 00:16:34;;;;;;;109.93;27.65;;;-3275.90;81.70;;;-3.33;93.12;97927.81;4914452;29;20065;-65
2022/01/14 00:19:00;;;;;;;110.38;28.02;;;-3275.80;81.90;;;-3.35;93.46;97919.31;4920950;29;20035;-65
2022/01/14 00:21:28;;;;;;;101.20;27.63;;;-3275.80;81.90;;;-3.36;93.83;97915.06;4932997;28;20090;-65
2022/01/14 00:24:05;;;;;;;64.85;28.48;;;-3275.80;82.10;;;-3.36;93.52;97917.63;4922054;29;20111;-65
2022/01/14 00:32:30;;;;;;;82.18;27.88;;;-3275.90;82.20;;;-3.34;94.09;97910.69;4941453;29;20031;-64
2022/01/14 00:34:55;;;;;;;219.85;28.05;;;-3276.00;82.20;;;-3.36;93.58;97897.06;4936399;29;20050;-64
2022/01/14 00:37:21;;;;;;;91.72;29.02;;;-3275.80;82.00;;;-3.36;93.62;97907.34;4948324;29;20036;-65
2022/01/14 00:39:47;;;;;;;80.45;26.90;;;-3275.80;82.50;;;-3.36;94.02;97901.38;4901232;29;20546;-64
2022/01/14 00:42:13;;;;;;;80.72;27.75;;;-3275.90;82.60;;;-3.36;93.76;97902.19;4933415;29;20111;-65
2022/01/14 00:44:38;;;;;;;88.70;28.15;;;-3275.90;82.50;;;-3.37;94.06;97892.81;4916742;29;20032;-65
2022/01/14 00:47:04;;;;;;;117.68;28.38;;;-3275.80;82.70;;;-3.38;93.90;97888.56;4933571;29;20134;-65
2022/01/14 00:49:30;;;;;;;175.85;28.55;;;-3275.80;82.60;;;-3.44;93.94;97881.91;4945469;28;20393;-67
2022/01/14 00:51:56;;;;;;;88.35;26.45;;;-3275.70;82.70;;;-3.46;94.09;97890.56;4914619;29;20036;-66
2022/01/14 00:54:22;;;;;;;102.53;26.60;;;-3275.60;82.90;;;-3.51;93.88;97871.91;4914648;29;20099;-65
2022/01/14 00:59:33;;;;;;;105.28;30.02;;;-3275.50;83.60;;;-3.59;94.26;97879.09;4922307;29;20042;-65
2022/01/14 01:02:00;;;;;;;175.05;30.52;;;-3275.50;83.80;;;-3.62;94.43;97879.19;4938083;29;20445;-66
2022/01/14 01:04:36;;;;;;;150.80;29.55;;;-3275.50;83.70;;;-3.68;94.86;97874.28;4900318;29;20040;-66
2022/01/14 01:07:04;;;;;;;122.50;29.40;;;-3275.30;84.20;;;-3.73;94.27;97867.59;4956320;23;20059;-67
2022/01/14 01:09:31;;;;;;;97.43;29.08;;;-3275.30;84.30;;;-3.76;94.57;97875.41;4915369;29;20094;-67
2022/01/14 01:15:04;;;;;;;86.57;29.52;;;-3275.40;84.40;;;-3.72;94.86;97876.97;4936671;29;20061;-68
2022/01/14 01:17:18;;;;;;;88.22;26.50;;;-3275.50;84.30;;;-3.70;95.19;97880.31;4949082;28;20066;-68
2022/01/14 01:19:44;;;;;;;133.05;26.67;;;-3275.50;83.80;;;-3.70;95.17;97882.88;4920313;29;20392;-68
2022/01/14 01:22:10;;;;;;;191.32;29.30;;;-3275.40;83.50;;;-3.72;94.79;97881.28;4951577;29;20038;-67
2022/01/14 01:24:36;;;;;;;177.02;30.80;;;-3275.40;83.60;;;-3.77;94.97;97878.88;4935043;29;20118;-68
2022/01/14 01:27:08;;;;;;;85.28;27.65;;;-3275.30;84.20;;;-3.78;95.18;97874.63;4935109;29;20047;-68
2022/01/14 01:32:05;;;;;;;119.35;28.02;;;-3275.40;84.20;;;-3.76;95.49;97893.41;4932373;29;20059;-68
2022/01/14 01:34:30;;;;;;;81.32;27.67;;;-3275.40;84.10;;;-3.75;95.37;97889.94;4897268;29;20529;-68
2022/01/14 01:36:57;;;;;;;89.63;26.90;;;-3275.50;84.20;;;-3.73;95.49;97885.59;4947062;29;20078;-68
2022/01/14 01:39:28;;;;;;;126.60;28.33;;;-3275.50;84.10;;;-3.72;95.73;97889.84;4950904;28;20027;-68
2022/01/14 01:41:55;;;;;;;;;;;-3275.40;83.70;;;-3.71;96.64;97886.34;4931253;29;20079;-68
2022/01/14 01:44:22;;;;;;;74.45;27.35;;;-3275.50;84.00;;;-3.71;95.62;97876.06;4946890;29;19922;-68
2022/01/14 01:46:48;;;;;;;71.22;29.33;;;-3275.40;84.10;;;-3.72;95.16;97889.84;4934759;29;20175;-68
2022/01/14 01:49:19;;;;;;;85.82;28.50;;;-3275.50;83.80;;;-3.71;95.51;97881.22;4934876;28;20032;-68
2022/01/14 01:51:46;;;;;;;74.15;27.88;;;-3275.50;84.00;;;-3.68;95.72;97882.00;4920540;29;20583;-67
2022/01/14 01:54:12;;;;;;;83.78;29.45;;;-3275.50;84.10;;;-3.67;95.88;97876.78;4934677;29;20035;-68
2022/01/14 01:56:38;;;;;;;69.20;28.60;;;-3275.60;83.90;;;-3.65;95.87;97876.72;4950414;29;20036;-68
2022/01/14 01:59:04;;;;;;;70.75;29.55;;;-3275.60;83.90;;;-3.61;95.71;97883.47;4932540;28;20062;-68
2022/01/14 02:01:30;;;;;;;65.75;28.05;;;-3275.70;83.90;;;-3.59;95.94;97879.94;4918902;29;20432;-67
2022/01/14 02:03:56;;;;;;;69.80;28.42;;;-3275.70;83.70;;;-3.55;96.27;97883.22;4934838;29;20027;-67
2022/01/14 02:06:22;;;;;;;77.88;27.20;;;-3275.80;83.60;;;-3.52;95.64;97890.81;4949911;29;20121;-67
2022/01/14 02:08:48;;;;;;;67.63;28.05;;;-3275.80;83.40;;;-3.48;95.64;97887.22;4934572;29;20482;-69
2022/01/14 02:11:14;;;;;;;65.93;28.55;;;-3275.80;83.30;;;-3.48;95.42;97882.91;4937098;28;20035;-67
2022/01/14 02:13:40;;;;;;;76.20;29.40;;;-3275.80;83.00;;;-3.48;95.61;97877.78;4934909;29;20106;-67
2022/01/14 02:18:49;;;;;;;71.55;27.80;;;-3275.60;83.40;;;-3.49;95.47;97875.25;4934930;29;20038;-67
2022/01/14 02:24:19;;;;;;;64.32;27.17;;;-3275.70;83.20;;;-3.50;95.52;97866.72;4918953;29;20538;-67
2022/01/14 02:26:50;;;;;;;65.22;26.52;;;-3275.70;83.20;;;-3.51;95.52;97856.47;4911849;29;20047;-68
2022/01/14 02:29:16;;;;;;;69.93;24.30;;;-3275.70;82.90;;;-3.52;95.02;97865.09;4937009;28;20135;-68
2022/01/14 02:31:42;;;;;;;61.30;25.67;;;-3275.60;82.70;;;-3.52;95.23;97859.94;4950601;29;20070;-68
2022/01/14 02:34:10;;;;;;;63.28;25.38;;;-3275.70;83.10;;;-3.53;95.17;97855.69;4933891;29;20489;-68
2022/01/14 02:36:36;;;;;;;59.60;26.35;;;-3275.60;82.80;;;-3.55;94.89;97849.78;4950191;29;20042;-68
2022/01/14 02:39:02;;;;;;;77.32;27.40;;;-3275.70;82.80;;;-3.55;95.00;97847.22;4933728;29;20118;-68
2022/01/14 02:41:28;;;;;;;65.53;25.55;;;-3275.70;83.00;;;-3.56;94.95;97845.53;4934459;29;20087;-68
2022/01/14 02:43:53;;;;;;;82.38;27.58;;;-3275.70;83.20;;;-3.56;95.26;97848.94;4947459;28;20637;-68
2022/01/14 02:46:19;;;;;;;119.28;28.90;;;-3275.70;83.10;;;-3.55;95.43;97839.50;4929616;29;20047;-68
2022/01/14 02:48:45;;;;;;;63.40;26.48;;;-3275.70;83.20;;;-3.55;95.57;97824.91;4914410;29;20054;-68
2022/01/14 02:51:13;;;;;;;141.95;27.35;;;-3275.60;83.30;;;-3.57;95.28;97820.72;4949519;28;20075;-68
2022/01/14 02:56:19;;;;;;;60.67;26.17;;;-3275.60;83.30;;;-3.57;95.87;97818.13;4933201;29;20463;-68
2022/01/14 02:58:45;;;;;;;57.13;26.60;;;-3275.60;83.40;;;-3.59;95.23;97822.50;4936351;29;20046;-67
2022/01/14 03:01:16;;;;;;;58.38;26.00;;;-3275.50;83.50;;;-3.60;95.35;97820.84;4917486;28;20126;-68
2022/01/14 03:03:45;;;;;;;;;;;-3275.60;83.30;;;-3.57;96.07;97824.13;4908786;29;20035;-69
2022/01/14 03:06:12;;;;;;;52.33;24.65;;;-3275.60;83.30;;;-3.58;95.47;97814.72;4938611;28;20014;-68
2022/01/14 03:08:37;;;;;;;54.83;24.35;;;-3275.60;83.20;;;-3.57;95.35;97815.56;4936860;29;20040;-68
2022/01/14 03:11:08;;;;;;;52.90;22.92;;;-3275.60;82.80;;;-3.58;95.11;97813.91;4937641;28;20411;-67
2022/01/14 03:13:33;;;;;;;48.57;23.03;;;-3275.60;82.80;;;-3.58;95.16;97813.91;4939922;29;20414;-68
2022/01/14 03:16:00;;;;;;;49.67;23.48;;;-3275.60;82.60;;;-3.58;94.85;97811.31;4939530;29;20043;-68
2022/01/14 03:18:47;;;;;;;49.90;25.00;;;-3275.70;82.60;;;-3.58;94.77;97808.75;4924926;29;20035;-68
2022/01/14 03:21:15;;;;;;;70.88;25.75;;;-3275.60;82.70;;;-3.60;94.83;97815.69;4955706;28;20036;-68
2022/01/14 03:23:48;;;;;;;56.15;25.67;;;-3275.50;83.10;;;-3.59;95.07;97817.38;4940909;29;20062;-68
2022/01/14 03:26:16;;;;;;;52.92;24.77;;;-3275.50;83.30;;;-3.59;95.25;97807.91;4936200;29;20050;-68
2022/01/14 03:28:42;;;;;;;57.70;25.35;;;-3275.60;83.00;;;-3.56;95.28;97806.97;4921051;29;20070;-68
2022/01/14 03:31:08;;;;;;;57.67;25.30;;;-3275.70;82.90;;;-3.59;95.12;97796.78;4938172;28;20388;-67
2022/01/14 03:33:34;;;;;;;56.80;26.17;;;-3275.60;83.00;;;-3.59;95.07;97796.78;4924635;29;20550;-68
2022/01/14 03:36:01;;;;;;;61.33;27.60;;;-3275.60;82.70;;;-3.57;94.99;97792.44;4939400;29;20039;-68
2022/01/14 03:38:26;;;;;;;57.50;26.13;;;-3275.60;82.80;;;-3.56;94.65;97791.53;4940211;29;20042;-68
2022/01/14 03:40:52;;;;;;;73.38;27.13;;;-3275.60;82.80;;;-3.57;94.84;97790.69;4957367;28;20090;-68
2022/01/14 03:43:18;;;;;;;62.70;27.00;;;-3275.60;82.70;;;-3.58;94.89;97783.88;4939303;28;20118;-67
2022/01/14 03:45:45;;;;;;;52.08;25.83;;;-3275.70;82.80;;;-3.57;94.95;97780.41;4954461;28;20054;-67
2022/01/14 03:48:11;;;;;;;102.50;26.25;;;-3275.60;82.70;;;-3.58;94.95;97780.47;4923846;29;20125;-69
2022/01/14 03:50:37;;;;;;;55.72;26.30;;;-3275.60;82.60;;;-3.57;94.77;97774.41;4931582;29;20083;-70
2022/01/14 03:53:03;;;;;;;59.08;27.23;;;-3275.60;82.60;;;-3.57;94.65;97766.69;4904711;29;20150;-72
2022/01/14 03:55:29;;;;;;;119.18;29.73;;;-3275.70;82.60;;;-3.61;94.80;97763.41;4931584;29;20046;-68
2022/01/14 03:57:54;;;;;;;64.40;28.67;;;-3275.50;82.70;;;-3.62;94.86;97766.03;4947571;28;20047;-71
2022/01/14 04:00:20;;;;;;;273.02;29.15;;;-3275.50;83.20;;;-3.70;94.79;97769.75;4948825;28;20082;-68
2022/01/14 04:02:46;;;;;;;89.47;29.27;;;-3275.40;83.10;;;-3.74;94.48;97767.38;4924586;29;20217;-69
2022/01/14 04:05:12;;;;;;;76.35;28.25;;;-3275.30;83.30;;;-3.77;94.61;97760.63;4954044;28;20176;-68
2022/01/14 04:07:38;;;;;;;87.20;29.45;;;-3275.30;83.50;;;-3.78;95.23;97764.06;4923169;29;20121;-68
2022/01/14 04:10:04;;;;;;;62.35;28.52;;;-3275.30;83.40;;;-3.80;95.18;97758.16;4937391;29;20027;-68
2022/01/14 04:12:56;;;;;;;73.95;32.60;;;-3275.30;83.70;;;-3.78;94.96;97752.97;4923896;29;20042;-69
2022/01/14 04:15:36;;;;;;;83.22;30.42;;;-3275.40;83.50;;;-3.77;94.96;97754.63;4939017;28;20067;-69
2022/01/14 04:18:04;;;;;;;78.43;31.00;;;-3275.40;83.40;;;-3.78;95.43;97761.50;4933453;29;20032;-68
2022/01/14 04:20:30;;;;;;;89.78;30.17;;;-3275.40;83.50;;;-3.78;95.54;97761.50;4950679;29;20495;-68
2022/01/14 04:22:55;;;;;;;71.60;29.92;;;-3275.40;83.70;;;-3.76;95.37;97762.28;4952064;29;20035;-68
2022/01/14 04:25:21;;;;;;;76.32;34.80;;;-3275.50;83.70;;;-3.75;95.83;97755.41;4932340;29;20063;-70
2022/01/14 04:27:47;;;;;;;120.07;53.95;;;-3275.50;83.70;;;-3.70;95.25;97759.47;4901235;29;20385;-68
2022/01/14 04:30:13;;;;;;;234.27;35.60;;;-3275.60;83.40;;;-3.68;95.41;97761.97;4901476;29;20500;-68
2022/01/14 04:32:40;;;;;;;89.53;40.92;;;-3275.50;83.10;;;-3.68;95.37;97756.81;4911936;29;20049;-68
2022/01/14 04:35:06;;;;;;;71.40;31.27;;;-3275.60;83.30;;;-3.67;95.60;97762.81;4942173;28;20039;-67
2022/01/14 04:37:31;;;;;;;75.50;31.60;;;-3275.60;83.20;;;-3.67;95.47;97757.66;4951419;29;20744;-67
2022/01/14 04:39:57;;;;;;;71.20;32.08;;;-3275.60;83.10;;;-3.65;95.48;97750.72;4935231;29;20035;-67
2022/01/14 04:42:24;;;;;;;78.05;37.13;;;-3275.60;83.00;;;-3.65;95.32;97740.44;4952517;28;20175;-69
2022/01/14 04:44:54;;;;;;;78.88;38.13;;;-3275.60;82.70;;;-3.63;95.25;97739.47;4919415;29;20430;-67
2022/01/14 04:47:44;;;;;;;67.72;30.65;;;-3275.70;83.00;;;-3.61;95.25;97742.00;4935421;28;20054;-67
2022/01/14 04:50:11;;;;;;;66.85;30.33;;;-3275.70;82.60;;;-3.59;94.88;97741.03;4934884;29;20035;-68
2022/01/14 04:52:39;;;;;;;66.45;30.65;;;-3275.70;82.30;;;-3.58;95.09;97741.88;4951412;29;20036;-67
2022/01/14 04:55:07;;;;;;;65.15;28.67;;;-3275.70;82.50;;;-3.60;95.04;97738.53;4934184;28;20028;-66
2022/01/14 04:57:32;;;;;;;69.45;28.35;;;-3275.60;82.50;;;-3.62;94.68;97735.16;4935425;29;20023;-67
2022/01/14 04:59:58;;;;;;;73.53;31.02;;;-3275.50;82.10;;;-3.64;94.76;97742.09;4934351;29;20070;-66
2022/01/14 05:02:24;;;;;;;64.10;29.13;;;-3275.50;82.50;;;-3.63;94.61;97738.63;4933451;29;20066;-66
2022/01/14 05:04:53;;;;;;;95.53;29.15;;;-3275.60;82.50;;;-3.66;94.76;97733.63;4902375;29;20126;-66
2022/01/14 05:07:24;;;;;;;77.30;30.33;;;-3275.50;82.60;;;-3.69;94.61;97739.72;4919503;28;20071;-66
2022/01/14 05:12:33;;;;;;;66.43;30.27;;;-3275.50;83.00;;;-3.69;94.75;97739.72;4918773;29;20112;-65
2022/01/14 05:14:58;;;;;;;69.10;31.60;;;-3275.50;83.00;;;-3.72;95.05;97745.84;4910025;29;20155;-65
2022/01/14 05:17:24;;;;;;;68.15;30.55;;;-3275.50;82.90;;;-3.71;95.17;97742.34;4934746;28;20070;-66
2022/01/14 05:19:50;;;;;;;65.80;29.38;;;-3275.50;82.90;;;-3.70;95.01;97741.47;4935593;29;20023;-66
2022/01/14 05:22:17;;;;;;;68.35;29.77;;;-3275.50;82.80;;;-3.69;95.17;97744.88;4935285;29;20129;-66
2022/01/14 05:24:43;;;;;;;96.82;32.08;;;-3275.60;82.90;;;-3.67;95.13;97737.09;4930951;29;20031;-67
2022/01/14 05:27:09;;;;;;;67.60;29.98;;;-3275.60;82.70;;;-3.72;94.57;97745.84;4915395;29;20095;-67
2022/01/14 05:29:35;;;;;;;68.90;29.80;;;-3275.50;82.70;;;-3.71;94.72;97744.94;4944814;28;20064;-66
2022/01/14 05:32:03;;;;;;;88.20;27.90;;;-3275.50;82.60;;;-3.77;94.72;97747.75;4919123;29;20043;-66
2022/01/14 05:34:33;;;;;;;69.72;29.40;;;-3275.30;82.60;;;-3.86;94.80;97748.09;4935162;29;20086;-66
2022/01/14 05:37:00;;;;;;;79.97;31.50;;;-3275.10;83.30;;;-3.86;95.02;97745.53;4919551;29;20553;-66
2022/01/14 05:39:25;;;;;;;62.75;30.92;;;-3275.30;83.40;;;-3.86;94.69;97749.84;4903382;28;20024;-66
2022/01/14 05:41:51;;;;;;;58.42;27.58;;;-3275.30;83.30;;;-3.87;94.88;97750.72;4919314;29;20698;-66
2022/01/14 05:44:17;;;;;;;57.58;26.20;;;-3275.30;83.20;;;-3.91;94.59;97750.00;4918607;29;20031;-66
2022/01/14 05:46:43;;;;;;;64.82;27.15;;;-3275.20;82.90;;;-3.93;94.76;97748.41;4934769;29;20027;-66
2022/01/14 05:49:09;;;;;;;71.75;26.30;;;-3275.10;82.80;;;-3.98;94.67;97751.16;4933247;28;20132;-66
2022/01/14 05:51:35;;;;;;;54.05;25.77;;;-3275.00;82.80;;;-4.04;94.59;97759.13;4934560;29;20030;-66
2022/01/14 05:54:00;;;;;;;71.10;26.65;;;-3275.00;83.50;;;-4.06;94.19;97760.91;4934334;29;20109;-66
2022/01/14 05:56:26;;;;;;;66.28;26.17;;;-3275.00;83.40;;;-4.10;94.34;97756.75;4918246;29;20482;-66
2022/01/14 05:58:52;;;;;;;57.45;25.70;;;-3274.90;83.20;;;-4.14;94.47;97752.63;4950349;29;20086;-66
2022/01/14 06:01:18;;;;;;;56.83;25.63;;;-3275.00;83.50;;;-4.16;94.37;97757.00;4950192;28;20543;-67
2022/01/14 06:03:43;;;;;;;49.70;24.08;;;-3275.00;83.20;;;-4.17;94.52;97752.75;4934582;29;20492;-66
2022/01/14 06:06:09;;;;;;;52.72;24.67;;;-3275.00;82.90;;;-4.18;94.47;97751.09;4934046;28;20126;-66
2022/01/14 06:08:35;;;;;;;52.53;25.75;;;-3275.00;82.90;;;-4.17;94.37;97752.75;4934596;29;20479;-65
2022/01/14 06:11:00;;;;;;;51.08;24.58;;;-3275.00;82.40;;;-4.15;94.24;97750.97;4929662;29;20591;-65
2022/01/14 06:13:26;;;;;;;50.65;23.58;;;-3275.10;82.40;;;-4.15;94.24;97744.09;4898228;29;20067;-65
2022/01/14 06:15:52;;;;;;;51.45;24.58;;;-3275.00;82.40;;;-4.13;94.07;97749.16;4932077;29;20059;-66
2022/01/14 06:18:18;;;;;;;49.60;24.63;;;-3275.10;82.40;;;-4.16;94.42;97750.13;4932451;29;20102;-65
2022/01/14 06:20:43;;;;;;;96.70;50.08;;;-3275.00;82.20;;;-4.14;94.46;97742.34;4949427;29;20110;-66
2022/01/14 06:23:09;;;;;;;85.00;43.97;;;-3275.10;83.00;;;-4.13;94.51;97744.03;4917503;28;20070;-65
2022/01/14 06:25:35;;;;;;;51.28;26.02;;;-3275.20;83.20;;;-4.10;94.63;97743.91;4933832;29;20047;-65
2022/01/14 06:28:00;;;;;;;45.72;23.75;;;-3275.10;82.40;;;-4.10;94.22;97738.78;4933891;29;20070;-67
2022/01/14 06:30:26;;;;;;;42.08;22.02;;;-3275.10;81.90;;;-4.14;93.89;97742.34;4934164;29;20062;-65
2022/01/14 06:32:56;;;;;;;48.35;23.05;;;-3275.00;81.80;;;-4.16;94.00;97744.97;4933837;29;20039;-67
2022/01/14 06:35:22;;;;;;;43.08;22.23;;;-3275.10;81.90;;;-4.13;93.78;97737.16;4917774;28;20383;-67
2022/01/14 06:37:48;;;;;;;44.42;22.73;;;-3275.10;82.00;;;-4.12;93.83;97740.56;4933164;29;20023;-65
2022/01/14 06:40:13;;;;;;;44.88;22.33;;;-3275.10;81.60;;;-4.10;94.01;97738.78;4949671;29;20047;-65
2022/01/14 06:42:39;;;;;;;43.40;21.65;;;-3275.20;82.50;;;-4.06;94.46;97730.06;4934074;29;20050;-65
2022/01/14 06:45:06;;;;;;;47.72;24.15;;;-3275.30;83.60;;;-4.01;94.97;97738.44;4917091;28;20396;-66
2022/01/14 06:47:32;;;;;;;43.13;21.27;;;-3275.30;83.50;;;-3.99;94.69;97731.50;4934031;28;20066;-66
2022/01/14 06:49:57;;;;;;;42.75;22.67;;;-3275.30;82.40;;;-4.00;93.90;97732.41;4949862;29;20518;-65
2022/01/14 06:52:23;;;;;;;43.17;22.70;;;-3275.30;81.30;;;-4.02;93.84;97731.63;4930655;29;20115;-66
2022/01/14 06:54:49;;;;;;;41.97;22.95;;;-3275.10;81.30;;;-4.04;93.43;97720.56;4930330;28;20035;-65
2022/01/14 06:57:15;;;;;;;45.08;22.13;;;-3275.10;81.00;;;-4.07;93.52;97724.09;4929708;29;20127;-66
2022/01/14 06:59:41;;;;;;;43.30;22.65;;;-3275.10;81.10;;;-4.07;93.07;97729.22;4936202;29;20031;-66
2022/01/14 07:02:06;;;;;;;44.80;22.88;;;-3275.10;81.10;;;-4.07;93.00;97728.41;4933273;29;20158;-66
2022/01/14 07:04:33;;;;;;;43.75;22.48;;;-3275.20;80.90;;;-4.10;93.08;97723.34;4949408;29;20031;-66
2022/01/14 07:06:59;;;;;;;42.45;22.15;;;-3275.10;81.00;;;-4.09;92.87;97731.00;4917528;29;20083;-65
2022/01/14 07:09:25;;;;;;;42.88;22.58;;;-3275.10;80.80;;;-4.09;93.27;97725.84;4917199;28;20495;-65
2022/01/14 07:11:57;;;;;;;45.47;23.55;;;-3275.20;80.80;;;-4.12;92.89;97725.97;4949783;29;20035;-65
2022/01/14 07:14:23;;;;;;;44.35;23.92;;;-3275.10;80.70;;;-4.11;92.93;97721.69;4904332;29;20582;-65
2022/01/14 07:16:48;;;;;;;48.00;23.88;;;-3275.10;80.90;;;-4.10;92.71;97731.06;4917339;29;20043;-65
2022/01/14 07:19:16;;;;;;;43.22;22.88;;;-3275.10;80.80;;;-4.10;92.81;97741.34;4932981;28;20062;-66
2022/01/14 07:21:42;;;;;;;43.45;23.60;;;-3275.10;80.90;;;-4.12;92.81;97743.13;4918210;29;20184;-66
2022/01/14 07:24:09;;;;;;;52.70;26.80;;;-3275.10;80.90;;;-4.12;92.69;97741.41;4917650;29;20601;-66
2022/01/14 07:26:35;;;;;;;47.83;25.85;;;-3275.20;81.10;;;-4.11;92.91;97745.63;4933719;29;20138;-66
2022/01/14 07:29:01;;;;;;;47.50;24.10;;;-3275.20;80.90;;;-4.10;92.56;97744.75;4917406;29;20035;-66
2022/01/14 07:31:27;;;;;;;48.15;25.90;;;-3275.20;80.80;;;-4.08;92.94;97752.38;4932718;28;20070;-66
2022/01/14 07:33:52;;;;;;;43.42;24.02;;;-3275.20;80.80;;;-4.08;92.58;97753.22;4933459;29;20061;-65
2022/01/14 07:36:18;;;;;;;46.20;24.30;;;-3275.20;80.90;;;-4.05;93.08;97754.88;4950131;28;20435;-66
2022/01/14 07:38:44;;;;;;;44.47;23.40;;;-3275.20;80.80;;;-4.03;93.04;97747.94;4933466;29;20067;-66
2022/01/14 07:41:10;;;;;;;41.15;22.55;;;-3275.30;80.90;;;-3.99;93.19;97752.06;4948547;28;20059;-66
2022/01/14 07:43:36;;;;;;;43.20;23.45;;;-3275.30;80.80;;;-3.95;93.11;97748.47;4933145;29;20113;-66
2022/01/14 07:46:03;;;;;;;47.25;23.92;;;-3275.40;80.60;;;-3.92;92.90;97747.50;4932675;29;20038;-66
2022/01/14 07:48:28;;;;;;;47.00;24.20;;;-3275.50;80.60;;;-3.87;92.95;97751.56;4934037;29;20039;-66
2022/01/14 07:50:54;;;;;;;48.17;25.48;;;-3275.50;80.50;;;-3.86;92.89;97742.13;4936709;29;20118;-66
2022/01/14 07:53:20;;;;;;;46.97;25.02;;;-3275.40;80.30;;;-3.87;92.79;97754.13;4952049;28;20063;-66
2022/01/14 07:55:46;;;;;;;48.17;24.77;;;-3275.30;80.50;;;-3.89;92.38;97742.25;4936448;29;20088;-65
2022/01/14 07:58:12;;;;;;;47.70;24.77;;;-3275.30;80.80;;;-3.90;92.81;97750.84;4936292;29;20046;-66
2022/01/14 08:00:38;;;;;;;44.10;23.88;;;-3275.20;80.90;;;-3.90;92.62;97756.00;4920904;29;20451;-66
2022/01/14 08:03:03;;;;;;;47.47;24.08;;;-3275.30;81.10;;;-3.89;92.81;97758.50;4936566;29;20039;-66
2022/01/14 08:05:30;;;;;;;45.30;24.40;;;-3275.30;81.50;;;-3.86;92.47;97758.38;4935945;29;20460;-65
2022/01/14 08:07:58;;;;;;;44.58;23.98;;;-3275.40;81.10;;;-3.79;93.06;97764.16;4936073;29;20102;-66
2022/01/14 08:10:24;;;;;;;44.95;25.05;;;-3275.60;81.00;;;-3.74;93.14;97762.22;4921113;29;20460;-66
2022/01/14 08:12:49;;;;;;;46.08;24.70;;;-3275.60;80.60;;;-3.70;92.87;97762.03;4920376;29;20105;-66
2022/01/14 08:15:15;;;;;;;50.05;26.17;;;-3275.60;80.80;;;-3.65;93.24;97766.16;4935218;28;20043;-66
2022/01/14 08:17:41;;;;;;;49.40;25.67;;;-3275.70;80.70;;;-3.63;92.86;97762.63;4936282;29;20046;-66
2022/01/14 08:20:08;;;;;;;47.70;24.95;;;-3275.70;80.50;;;-3.59;93.12;97761.63;4951976;29;20114;-66
2022/01/14 08:22:34;;;;;;;51.53;26.05;;;-3275.70;80.70;;;-3.52;93.04;97767.34;4951999;29;20031;-65
2022/01/14 08:25:00;;;;;;;47.42;25.85;;;-3275.90;80.60;;;-3.47;93.09;97765.41;4935917;29;20147;-66
2022/01/14 08:27:26;;;;;;;49.08;26.95;;;-3275.90;80.30;;;-3.41;92.82;97770.31;4919333;28;20539;-65
2022/01/14 08:29:53;;;;;;;50.88;26.52;;;-3276.00;80.20;;;-3.37;92.57;97761.59;4935979;29;20403;-66
2022/01/14 08:32:19;;;;;;;49.53;25.90;;;-3276.00;80.00;;;-3.32;93.01;97764.81;4935958;29;20452;-65
2022/01/14 08:34:44;;;;;;;45.97;25.25;;;-3276.00;80.30;;;-3.25;93.24;97765.38;4935119;29;20043;-65
2022/01/14 08:37:10;;;;;;;48.40;24.48;;;-3276.20;80.40;;;-3.17;93.14;97760.75;4951394;28;20145;-66
2022/01/14 08:39:36;;;;;;;45.95;24.17;;;-3276.30;80.30;;;-3.11;93.07;97761.34;4920249;29;20051;-66
2022/01/14 08:42:04;;;;;;;45.22;25.35;;;-3276.40;80.20;;;-3.03;93.38;97761.00;4920149;29;20063;-66
2022/01/14 08:44:30;;;;;;;46.67;24.95;;;-3276.40;80.30;;;-2.97;92.98;97760.75;4936096;29;20130;-66
2022/01/14 08:46:56;;;;;;;43.30;24.33;;;-3276.50;80.30;;;-2.89;93.11;97757.88;4919800;29;20498;-66
2022/01/14 08:49:22;;;;;;;45.40;24.95;;;-3276.60;80.30;;;-2.82;93.52;97748.97;4951208;28;20507;-66
2022/01/14 08:51:49;;;;;;;45.10;24.17;;;-3276.60;80.10;;;-2.76;93.59;97748.69;4935758;29;20065;-66
2022/01/14 08:54:16;;;;;;;45.95;24.08;;;0.00;80.30;;;-2.67;93.63;97743.16;4919729;29;20028;-66
2022/01/14 08:56:42;;;;;;;50.13;24.58;;;0.00;80.10;;;-2.59;93.74;97743.66;4935585;29;20043;-66
2022/01/14 08:59:08;;;;;;;43.03;24.10;;;0.10;79.80;;;-2.48;93.85;97743.19;4934856;28;20070;-66
2022/01/14 09:01:34;;;;;;;43.97;24.73;;;0.10;79.80;;;-2.40;93.78;97745.41;4934347;29;20046;-66
2022/01/14 09:04:01;;;;;;;47.88;25.00;;;0.30;79.80;;;-2.30;93.89;97742.34;4945704;28;20036;-66
2022/01/14 09:06:28;;;;;;;44.50;23.85;;;0.50;79.20;;;-2.18;93.39;97735.81;4919371;29;20031;-66
2022/01/14 09:08:54;;;;;;;46.58;24.30;;;0.60;78.80;;;-2.08;93.82;97728.47;4919478;29;20071;-66
2022/01/14 09:11:19;;;;;;;41.35;23.60;;;0.70;78.70;;;-1.96;93.43;97736.47;4918968;28;20131;-66
2022/01/14 09:13:45;;;;;;;44.15;24.50;;;1.00;78.30;;;-1.83;93.47;97741.03;4919525;29;20472;-66
2022/01/14 09:16:11;;;;;;;44.15;24.88;;;1.10;77.90;;;-1.69;93.30;97744.66;4950625;29;20035;-66
2022/01/14 09:18:37;;;;;;;43.03;24.30;;;1.40;77.30;;;-1.53;93.35;97749.94;4935423;29;20031;-66
2022/01/14 09:21:03;;;;;;;42.38;23.73;;;1.50;76.80;;;-1.39;93.40;97751.81;4951074;29;20086;-68
2022/01/14 09:23:29;;;;;;;46.95;25.45;;;1.70;76.30;;;-1.25;93.00;97745.06;4934698;29;20114;-67
2022/01/14 09:25:55;;;;;;;41.42;24.10;;;1.90;75.40;;;-1.07;93.22;97761.41;4950839;29;20031;-67
2022/01/14 09:28:21;;;;;;;43.15;24.30;;;2.20;75.10;;;-0.90;92.96;97750.25;4934845;29;20399;-67
2022/01/14 09:30:47;;;;;;;42.85;24.02;;;2.40;74.50;;;-0.73;92.67;97752.78;4935055;29;20047;-67
2022/01/14 09:33:14;;;;;;;42.92;23.88;;;2.80;73.60;;;-0.50;92.49;97745.59;4934501;28;20097;-67
2022/01/14 09:35:40;;;;;;;42.00;22.90;;;3.40;71.10;;;-0.30;91.27;97737.63;4950873;29;20503;-67
2022/01/14 09:38:06;;;;;;;44.97;23.42;;;4.10;68.20;;;-0.09;91.12;97739.06;4950764;29;20117;-66
2022/01/14 09:40:32;;;;;;;35.65;21.88;;;4.90;66.20;;;0.15;90.88;97741.22;4934880;29;20054;-66
2022/01/14 09:43:01;;;;;;;37.10;22.08;;;6.00;62.60;;;0.41;91.33;97742.34;4934959;29;20460;-66
2022/01/14 09:45:30;;;;;;;36.55;21.55;;;7.10;58.60;;;0.72;90.69;97738.88;4950159;28;20047;-66
2022/01/14 09:47:56;;;;;;;34.03;20.92;;;8.40;54.80;;;1.09;90.49;97745.34;4935375;29;20522;-67
2022/01/14 09:50:22;;;;;;;36.45;21.70;;;9.50;50.50;;;1.50;91.50;97741.13;4934559;29;20044;-66
2022/01/14 09:52:51;;;;;;;32.38;21.92;;;10.60;47.30;;;1.97;90.74;97739.16;4931815;29;20035;-66
2022/01/14 09:55:18;;;;;;;30.42;22.70;;;11.70;44.20;;;2.53;89.47;97737.34;4925093;28;20531;-67
2022/01/14 09:57:44;;;;;;;30.52;22.65;;;12.60;42.00;;;3.02;88.41;97727.97;4918940;29;20062;-66
2022/01/14 10:00:11;;;;;;;28.88;22.40;;;13.20;40.10;;;3.53;87.12;97725.38;4934512;29;20043;-67
2022/01/14 10:02:38;;;;;;;29.92;22.38;;;14.10;37.80;;;4.04;86.04;97720.09;4918482;29;20047;-66
2022/01/14 10:05:07;;;;;;;26.90;20.92;;;15.00;36.20;;;4.51;84.72;97713.22;4934100;29;20062;-66
2022/01/14 10:07:33;;;;;;;26.83;20.55;;;15.70;34.90;;;4.98;83.31;97717.59;4933987;29;20141;-66
2022/01/14 10:10:01;;;;;;;25.95;19.13;;;16.10;34.00;;;5.40;80.53;97708.25;4934458;29;20031;-66
2022/01/14 10:12:36;;;;;;;26.73;20.25;;;16.70;32.90;;;5.79;74.48;97700.94;4934783;29;20040;-66
2022/01/14 10:15:08;;;;;;;26.67;19.95;;;17.60;31.70;;;6.21;76.42;97706.38;4950083;28;20040;-66